createdAt,value
2023-03-19T00:00:23.833Z,98004.00
2023-03-19T00:02:52.047Z,98011.47
2023-03-19T00:05:19.222Z,98014.94
2023-03-19T00:07:46.007Z,98012.97
2023-03-19T00:10:12.982Z,98009.19
2023-03-19T00:12:40.130Z,98008.50
2023-03-19T00:15:09.195Z,98006.03
2023-03-19T00:17:35.928Z,98014.13
2023-03-19T00:20:02.932Z,98013.66
2023-03-19T00:22:29.567Z,98012.88
2023-03-19T00:24:56.442Z,98014.38
2023-03-19T00:27:23.070Z,98008.09
2023-03-19T00:29:50.139Z,98013.06
2023-03-19T00:32:16.839Z,98011.22
2023-03-19T00:34:44.385Z,98023.19
2023-03-19T00:37:12.335Z,98016.13
2023-03-19T00:39:39.257Z,98019.91
2023-03-19T00:42:06.219Z,98022.75
2023-03-19T00:44:33.357Z,98020.41
2023-03-19T00:46:59.984Z,98018.06
2023-03-19T00:49:26.820Z,98022.03
2023-03-19T00:51:53.449Z,98023.16
2023-03-19T00:54:20.077Z,98017.06
2023-03-19T00:56:46.716Z,98019.03
2023-03-19T00:59:13.323Z,98020.53
2023-03-19T01:01:40.069Z,98017.75
2023-03-19T01:04:06.800Z,98017.41
2023-03-19T01:06:33.451Z,98013.63
2023-03-19T01:09:00.089Z,98016.94
2023-03-19T01:11:26.728Z,98025.19
2023-03-19T01:13:53.699Z,98024.06
2023-03-19T01:16:20.507Z,98015.16
2023-03-19T01:18:47.268Z,98012.88
2023-03-19T01:21:13.938Z,98008.91
2023-03-19T01:23:45.842Z,98026.25
2023-03-19T01:26:13.291Z,98028.75
2023-03-19T01:28:40.078Z,98035.16
2023-03-19T01:31:10.015Z,98040.28
2023-03-19T01:34:15.305Z,98039.50
2023-03-19T01:36:47.509Z,98043.88
2023-03-19T01:39:17.185Z,98046.28
2023-03-19T01:41:44.262Z,98040.41
2023-03-19T01:44:35.830Z,98046.88
2023-03-19T01:47:36.836Z,98056.72
2023-03-19T01:50:27.332Z,98052.06
2023-03-19T01:53:14.032Z,98059.13
2023-03-19T01:55:50.827Z,98058.22
2023-03-19T01:58:31.125Z,98063.31
2023-03-19T02:01:16.025Z,98071.53
2023-03-19T02:03:46.751Z,98078.31
2023-03-19T02:06:16.793Z,98091.97
2023-03-19T02:08:43.887Z,98101.88
2023-03-19T02:11:10.886Z,98094.22
2023-03-19T02:13:38.011Z,98092.72
2023-03-19T02:16:04.917Z,98079.97
2023-03-19T02:18:32.028Z,98081.16
2023-03-19T02:21:08.251Z,98084.47
2023-03-19T02:23:46.728Z,98088.44
2023-03-19T02:26:21.921Z,98089.44
2023-03-19T02:28:52.153Z,98095.63
2023-03-19T02:31:28.159Z,98090.56
2023-03-19T02:33:57.739Z,98086.28
2023-03-19T02:36:24.431Z,98087.81
2023-03-19T02:38:52.219Z,98095.59
2023-03-19T02:41:19.488Z,98100.88
2023-03-19T02:43:46.714Z,98087.91
2023-03-19T02:46:13.895Z,98090.63
2023-03-19T02:48:41.403Z,98093.19
2023-03-19T02:51:08.750Z,98096.06
2023-03-19T02:53:36.242Z,98099.16
2023-03-19T02:56:02.954Z,98095.19
2023-03-19T02:58:29.587Z,98094.69
2023-03-19T03:00:56.296Z,98083.25
2023-03-19T03:03:23.028Z,98088.44
2023-03-19T03:05:50.081Z,98086.13
2023-03-19T03:08:16.865Z,98087.72
2023-03-19T03:10:43.949Z,98088.72
2023-03-19T03:13:12.056Z,98093.66
2023-03-19T03:15:38.667Z,98104.22
2023-03-19T03:18:06.146Z,98106.31
2023-03-19T03:20:33.678Z,98110.56
2023-03-19T03:23:01.027Z,98108.25
2023-03-19T03:25:28.382Z,98104.56
2023-03-19T03:27:55.232Z,98092.75
2023-03-19T03:30:22.592Z,98095.31
2023-03-19T03:32:49.209Z,98087.06
2023-03-19T03:35:21.947Z,98084.09
2023-03-19T03:37:50.173Z,98100.25
2023-03-19T03:40:17.263Z,98114.72
2023-03-19T03:42:44.482Z,98099.50
2023-03-19T03:45:12.277Z,98102.97
2023-03-19T03:47:41.036Z,98103.91
2023-03-19T03:50:10.929Z,98096.16
2023-03-19T03:52:38.795Z,98107.41
2023-03-19T03:55:05.909Z,98111.53
2023-03-19T03:57:32.514Z,98122.31
2023-03-19T03:59:59.197Z,98107.25
2023-03-19T04:02:26.273Z,98114.03
2023-03-19T04:04:53.548Z,98110.09
2023-03-19T04:07:20.784Z,98115.38
2023-03-19T04:09:53.295Z,98115.69
2023-03-19T04:12:19.966Z,98122.34
2023-03-19T04:14:47.622Z,98124.72
2023-03-19T04:17:14.344Z,98120.97
2023-03-19T04:19:41.061Z,98117.34
2023-03-19T04:22:08.610Z,98118.47
2023-03-19T04:24:35.280Z,98118.31
2023-03-19T04:27:05.363Z,98128.56
2023-03-19T04:29:32.137Z,98136.47
2023-03-19T04:31:59.928Z,98135.13
2023-03-19T04:34:26.539Z,98136.00
2023-03-19T04:36:53.264Z,98141.66
2023-03-19T04:39:20.095Z,98143.78
2023-03-19T04:41:47.334Z,98140.97
2023-03-19T04:44:25.287Z,98143.63
2023-03-19T04:46:52.961Z,98140.53
2023-03-19T04:49:24.641Z,98142.06
2023-03-19T04:51:56.447Z,98138.16
2023-03-19T04:54:24.461Z,98145.91
2023-03-19T04:56:51.884Z,98143.78
2023-03-19T04:59:22.882Z,98138.22
2023-03-19T05:01:50.216Z,98145.84
2023-03-19T05:04:20.930Z,98145.03
2023-03-19T05:06:48.791Z,98146.38
2023-03-19T05:09:15.391Z,98145.22
2023-03-19T05:11:43.030Z,98150.06
2023-03-19T05:14:15.025Z,98163.25
2023-03-19T05:16:57.744Z,98165.50
2023-03-19T05:19:26.782Z,98172.13
2023-03-19T05:21:54.321Z,98168.53
2023-03-19T05:24:27.225Z,98175.31
2023-03-19T05:26:55.165Z,98170.72
2023-03-19T05:29:46.958Z,98172.13
2023-03-19T05:32:42.901Z,98167.47
2023-03-19T05:35:15.335Z,98175.25
2023-03-19T05:37:42.382Z,98161.75
2023-03-19T05:40:10.267Z,98170.78
2023-03-19T05:42:38.064Z,98166.63
2023-03-19T05:45:05.792Z,98176.38
2023-03-19T05:47:58.199Z,98174.25
2023-03-19T05:50:25.905Z,98169.66
2023-03-19T05:53:07.697Z,98175.47
2023-03-19T05:55:36.346Z,98177.28
2023-03-19T05:58:07.834Z,98177.97
2023-03-19T06:00:35.022Z,98179.59
2023-03-19T06:03:02.278Z,98185.88
2023-03-19T06:05:37.374Z,98188.50
2023-03-19T06:08:16.381Z,98188.59
2023-03-19T06:11:11.904Z,98194.38
2023-03-19T06:13:39.264Z,98190.63
2023-03-19T06:16:09.129Z,98203.50
2023-03-19T06:18:45.760Z,98198.41
2023-03-19T06:21:14.124Z,98196.97
2023-03-19T06:23:40.926Z,98211.81
2023-03-19T06:26:10.220Z,98208.03
2023-03-19T06:28:44.578Z,98201.63
2023-03-19T06:31:12.471Z,98202.31
2023-03-19T06:33:55.430Z,98204.81
2023-03-19T06:36:26.204Z,98204.50
2023-03-19T06:38:53.124Z,98202.94
2023-03-19T06:41:19.741Z,98205.78
2023-03-19T06:43:47.777Z,98200.03
2023-03-19T06:46:14.503Z,98200.56
2023-03-19T06:48:41.539Z,98204.25
2023-03-19T06:51:08.482Z,98202.13
2023-03-19T06:53:35.206Z,98201.66
2023-03-19T06:56:01.812Z,98200.66
2023-03-19T06:58:28.794Z,98208.31
2023-03-19T07:00:56.955Z,98202.84
2023-03-19T07:03:23.780Z,98204.53
2023-03-19T07:05:51.903Z,98205.03
2023-03-19T07:08:18.719Z,98199.00
2023-03-19T07:10:45.425Z,98211.06
2023-03-19T07:13:12.061Z,98212.72
2023-03-19T07:15:41.793Z,98216.28
2023-03-19T07:18:08.383Z,98212.72
2023-03-19T07:20:35.232Z,98214.66
2023-03-19T07:23:02.097Z,98219.03
2023-03-19T07:25:28.889Z,98227.34
2023-03-19T07:27:56.138Z,98223.91
2023-03-19T07:30:22.832Z,98222.66
2023-03-19T07:32:49.466Z,98218.06
2023-03-19T07:35:16.198Z,98225.78
2023-03-19T07:37:42.850Z,98222.84
2023-03-19T07:40:10.446Z,98223.88
2023-03-19T07:42:37.060Z,98223.09
2023-03-19T07:45:04.912Z,98217.16
2023-03-19T07:47:31.920Z,98222.78
2023-03-19T07:49:58.594Z,98227.09
2023-03-19T07:52:26.157Z,98233.06
2023-03-19T07:54:53.107Z,98234.06
2023-03-19T07:59:46.640Z,98232.06
2023-03-19T08:02:13.800Z,98230.44
2023-03-19T08:04:40.682Z,98225.47
2023-03-19T08:07:10.453Z,98232.47
2023-03-19T08:09:37.987Z,98238.59
2023-03-19T08:12:05.577Z,98240.78
2023-03-19T08:14:33.969Z,98242.44
2023-03-19T08:17:00.869Z,98246.75
2023-03-19T08:19:27.526Z,98243.78
2023-03-19T08:21:54.256Z,98244.09
2023-03-19T08:24:20.971Z,98243.59
2023-03-19T08:26:47.635Z,98236.66
2023-03-19T08:29:14.362Z,98238.00
2023-03-19T08:31:41.316Z,98235.84
2023-03-19T08:34:10.420Z,98237.47
2023-03-19T08:36:37.578Z,98229.22
2023-03-19T08:39:04.604Z,98234.19
2023-03-19T08:41:31.679Z,98233.50
2023-03-19T08:43:58.469Z,98226.72
2023-03-19T08:46:27.070Z,98230.38
2023-03-19T08:48:53.893Z,98229.19
2023-03-19T08:51:21.033Z,98226.72
2023-03-19T08:53:47.684Z,98241.13
2023-03-19T08:56:14.355Z,98229.34
2023-03-19T08:58:43.852Z,98234.63
2023-03-19T09:01:14.195Z,98242.41
2023-03-19T09:03:42.028Z,98243.72
2023-03-19T09:06:10.604Z,98239.91
2023-03-19T09:08:38.010Z,98245.06
2023-03-19T09:11:05.531Z,98253.97
2023-03-19T09:13:32.724Z,98255.78
2023-03-19T09:15:59.540Z,98250.94
2023-03-19T09:18:26.335Z,98261.31
2023-03-19T09:20:54.123Z,98257.56
2023-03-19T09:23:21.709Z,98249.09
2023-03-19T09:25:48.950Z,98251.09
2023-03-19T09:28:16.108Z,98249.94
2023-03-19T09:30:48.393Z,98252.25
2023-03-19T09:33:16.490Z,98246.25
2023-03-19T09:35:43.723Z,98243.56
2023-03-19T09:38:10.425Z,98245.78
2023-03-19T09:40:42.302Z,98251.06
2023-03-19T09:43:18.126Z,98247.63
2023-03-19T09:45:45.895Z,98238.03
2023-03-19T09:48:52.295Z,98241.75
2023-03-19T09:51:22.432Z,98242.72
2023-03-19T09:54:04.648Z,98232.22
2023-03-19T09:56:32.864Z,98232.81
2023-03-19T09:59:00.109Z,98241.13
2023-03-19T10:01:33.990Z,98237.91
2023-03-19T10:04:19.709Z,98236.75
2023-03-19T10:06:46.503Z,98240.06
2023-03-19T10:09:29.369Z,98238.16
2023-03-19T10:12:20.488Z,98237.81
2023-03-19T10:15:14.485Z,98223.97
2023-03-19T10:17:49.414Z,98227.25
2023-03-19T10:20:29.676Z,98218.59
2023-03-19T10:23:31.295Z,98215.09
2023-03-19T10:26:00.190Z,98216.34
2023-03-19T10:28:28.841Z,98219.16
2023-03-19T10:31:12.030Z,98215.50
2023-03-19T10:34:06.650Z,98209.84
2023-03-19T10:36:36.961Z,98219.00
2023-03-19T10:39:06.989Z,98213.13
2023-03-19T10:42:08.537Z,98206.31
2023-03-19T10:44:38.042Z,98201.25
2023-03-19T10:47:13.456Z,98197.38
2023-03-19T10:49:40.757Z,98195.59
2023-03-19T10:52:17.249Z,98195.47
2023-03-19T10:54:45.192Z,98200.75
2023-03-19T10:57:23.709Z,98189.44
2023-03-19T10:59:50.558Z,98187.66
2023-03-19T11:02:31.177Z,98186.63
2023-03-19T11:05:12.904Z,98172.84
2023-03-19T11:07:39.945Z,98176.81
2023-03-19T11:10:14.718Z,98172.97
2023-03-19T11:12:41.627Z,98175.81
2023-03-19T11:15:22.524Z,98175.00
2023-03-19T11:17:57.565Z,98179.13
2023-03-19T11:20:36.448Z,98165.28
2023-03-19T11:23:09.371Z,98170.03
2023-03-19T11:25:42.255Z,98171.69
2023-03-19T11:28:23.107Z,98170.25
2023-03-19T11:31:03.750Z,98173.28
2023-03-19T11:33:37.949Z,98164.63
2023-03-19T11:36:16.728Z,98164.66
2023-03-19T11:39:05.178Z,98155.72
2023-03-19T11:41:50.952Z,98157.50
2023-03-19T11:44:27.992Z,98156.59
2023-03-19T11:47:26.634Z,98147.97
2023-03-19T11:50:18.916Z,98149.78
2023-03-19T11:52:57.986Z,98145.09
2023-03-19T11:55:36.348Z,98137.66
2023-03-19T11:58:13.395Z,98136.91
2023-03-19T12:00:46.872Z,98133.38
2023-03-19T12:03:35.148Z,98131.38
2023-03-19T12:06:18.211Z,98133.81
2023-03-19T12:08:54.325Z,98126.22
2023-03-19T12:11:44.363Z,98133.84
2023-03-19T12:14:35.830Z,98128.25
2023-03-19T12:17:23.873Z,98130.34
2023-03-19T12:20:28.592Z,98128.06
2023-03-19T12:23:13.541Z,98121.56
2023-03-19T12:25:53.130Z,98117.56
2023-03-19T12:28:26.843Z,98122.31
2023-03-19T12:31:15.539Z,98113.56
2023-03-19T12:33:47.966Z,98123.53
2023-03-19T12:36:19.506Z,98113.25
2023-03-19T12:39:01.244Z,98114.88
2023-03-19T12:41:29.750Z,98115.28
2023-03-19T12:44:07.142Z,98113.38
2023-03-19T12:46:38.090Z,98119.13
2023-03-19T12:49:15.689Z,98113.16
2023-03-19T12:51:45.643Z,98105.84
2023-03-19T12:54:27.749Z,98105.63
2023-03-19T12:57:00.367Z,98113.25
2023-03-19T12:59:45.023Z,98108.69
2023-03-19T13:02:30.681Z,98112.41
2023-03-19T13:05:01.643Z,98116.06
2023-03-19T13:07:35.720Z,98125.66
2023-03-19T13:10:22.337Z,98123.75
2023-03-19T13:12:50.798Z,98123.56
2023-03-19T13:15:34.052Z,98130.34
2023-03-19T13:18:19.597Z,98126.56
2023-03-19T13:21:11.591Z,98128.69
2023-03-19T13:23:39.231Z,98141.47
2023-03-19T13:26:09.985Z,98146.53
2023-03-19T13:28:55.326Z,98152.34
2023-03-19T13:31:24.443Z,98151.88
2023-03-19T13:34:18.451Z,98162.03
2023-03-19T13:36:52.949Z,98166.00
2023-03-19T13:39:22.270Z,98179.66
2023-03-19T13:41:53.631Z,98170.25
2023-03-19T13:44:42.325Z,98175.22
2023-03-19T13:47:27.129Z,98155.19
2023-03-19T13:50:16.388Z,98150.56
2023-03-19T13:52:46.132Z,98148.88
2023-03-19T13:55:25.243Z,98154.25
2023-03-19T13:58:02.022Z,98147.47
2023-03-19T14:00:47.085Z,98158.41
2023-03-19T14:03:21.666Z,98155.44
2023-03-19T14:05:50.783Z,98154.56
2023-03-19T14:08:23.188Z,98149.97
2023-03-19T14:10:52.751Z,98146.84
2023-03-19T14:13:28.337Z,98136.13
2023-03-19T14:16:01.794Z,98142.69
2023-03-19T14:18:29.661Z,98136.38
2023-03-19T14:20:56.854Z,98141.56
2023-03-19T14:23:39.681Z,98137.22
2023-03-19T14:26:19.336Z,98140.97
2023-03-19T14:28:55.038Z,98145.69
2023-03-19T14:31:23.577Z,98143.53
2023-03-19T14:33:58.597Z,98151.13
2023-03-19T14:36:25.435Z,98149.28
2023-03-19T14:38:54.690Z,98141.88
2023-03-19T14:41:23.072Z,98139.56
2023-03-19T14:44:05.940Z,98129.81
2023-03-19T14:47:07.923Z,98132.19
2023-03-19T14:50:05.243Z,98130.63
2023-03-19T14:52:33.310Z,98135.06
2023-03-19T14:55:10.012Z,98146.69
2023-03-19T14:57:36.850Z,98144.69
2023-03-19T15:14:40.887Z,98159.44
2023-03-19T15:18:03.471Z,98146.91
2023-03-19T15:23:53.748Z,98166.16
2023-03-19T15:37:48.063Z,98175.13
2023-03-19T15:40:16.400Z,98166.91
2023-03-19T15:42:44.085Z,98176.84
2023-03-19T15:45:12.991Z,98170.06
2023-03-19T15:47:43.720Z,98172.41
2023-03-19T15:50:16.764Z,98169.63
2023-03-19T15:52:48.373Z,98174.84
2023-03-19T15:55:16.552Z,98177.81
2023-03-19T15:57:43.973Z,98174.34
2023-03-19T16:00:13.672Z,98175.00
2023-03-19T16:02:42.177Z,98183.09
2023-03-19T16:05:28.322Z,98184.50
2023-03-19T16:08:03.218Z,98191.94
2023-03-19T16:10:39.607Z,98197.63
2023-03-19T16:13:29.988Z,98199.69
2023-03-19T16:16:01.087Z,98198.38
2023-03-19T16:18:30.816Z,98210.88
2023-03-19T16:21:00.967Z,98206.91
2023-03-19T16:23:33.940Z,98211.09
2023-03-19T16:26:16.849Z,98223.41
2023-03-19T16:28:47.309Z,98231.88
2023-03-19T16:31:21.580Z,98236.97
2023-03-19T16:33:50.698Z,98252.56
2023-03-19T16:36:17.583Z,98256.34
2023-03-19T16:38:55.940Z,98268.22
2023-03-19T16:41:29.928Z,98285.41
2023-03-19T16:44:08.231Z,98282.22
2023-03-19T16:46:34.998Z,98287.16
2023-03-19T16:49:01.960Z,98299.69
2023-03-19T16:51:28.564Z,98298.97
2023-03-19T16:53:55.244Z,98297.84
2023-03-19T16:56:21.889Z,98304.66
2023-03-19T16:58:48.783Z,98300.50
2023-03-19T17:01:23.343Z,98303.34
2023-03-19T17:03:50.684Z,98299.09
2023-03-19T17:06:18.129Z,98304.72
2023-03-19T17:08:45.073Z,98307.72
2023-03-19T17:11:32.043Z,98301.75
2023-03-19T17:13:59.512Z,98295.16
2023-03-19T17:16:27.193Z,98296.28
2023-03-19T17:18:54.118Z,98303.88
2023-03-19T17:21:28.992Z,98304.88
2023-03-19T17:23:55.799Z,98313.97
2023-03-19T17:26:27.485Z,98318.25
2023-03-19T17:28:55.787Z,98310.50
2023-03-19T17:31:32.651Z,98306.72
2023-03-19T17:34:04.809Z,98304.53
2023-03-19T17:36:31.845Z,98304.84
2023-03-19T17:38:59.091Z,98315.22
2023-03-19T17:41:26.063Z,98320.34
2023-03-19T17:43:52.825Z,98321.66
2023-03-19T17:46:22.825Z,98327.59
2023-03-19T17:48:50.962Z,98337.47
2023-03-19T17:51:18.157Z,98341.16
2023-03-19T17:53:54.943Z,98343.56
2023-03-19T17:56:25.402Z,98341.97
2023-03-19T17:58:52.116Z,98344.47
2023-03-19T18:01:23.733Z,98348.22
2023-03-19T18:03:51.478Z,98349.53
2023-03-19T18:06:23.530Z,98347.72
2023-03-19T18:08:50.454Z,98351.69
2023-03-19T18:11:17.092Z,98355.00
2023-03-19T18:13:43.889Z,98362.69
2023-03-19T18:16:25.729Z,98364.22
2023-03-19T18:18:52.724Z,98368.41
2023-03-19T18:21:19.502Z,98364.06
2023-03-19T18:23:46.713Z,98366.31
2023-03-19T18:26:14.210Z,98363.50
2023-03-19T18:28:41.139Z,98359.47
2023-03-19T18:31:15.470Z,98352.97
2023-03-19T18:33:45.790Z,98364.56
2023-03-19T18:36:15.432Z,98356.50
2023-03-19T18:38:42.051Z,98355.00
2023-03-19T18:41:09.673Z,98361.47
2023-03-19T18:43:36.437Z,98359.34
2023-03-19T18:46:03.088Z,98358.38
2023-03-19T18:48:33.885Z,98360.84
2023-03-19T18:51:00.729Z,98366.13
2023-03-19T18:53:27.857Z,98365.22
2023-03-19T18:55:54.461Z,98367.00
2023-03-19T18:58:25.885Z,98374.69
2023-03-19T19:00:53.347Z,98368.59
2023-03-19T19:03:22.704Z,98381.13
2023-03-19T19:05:49.867Z,98372.50
2023-03-19T19:08:20.437Z,98382.78
2023-03-19T19:10:55.942Z,98378.03
2023-03-19T19:13:25.911Z,98387.78
2023-03-19T19:15:52.815Z,98384.97
2023-03-19T19:18:22.532Z,98381.19
2023-03-19T19:20:51.417Z,98382.88
2023-03-19T19:23:18.868Z,98396.22
2023-03-19T19:25:48.190Z,98402.13
2023-03-19T19:28:21.309Z,98403.66
2023-03-19T19:30:49.691Z,98408.09
2023-03-19T19:33:18.756Z,98407.94
2023-03-19T19:35:45.920Z,98403.94
2023-03-19T19:38:13.680Z,98412.03
2023-03-19T19:40:42.670Z,98420.34
2023-03-19T19:43:19.536Z,98423.66
2023-03-19T19:45:48.254Z,98408.47
2023-03-19T19:48:17.580Z,98409.69
2023-03-19T19:50:48.090Z,98399.75
2023-03-19T19:53:15.542Z,98407.56
2023-03-19T19:55:42.430Z,98410.50
2023-03-19T19:58:31.414Z,98406.56
2023-03-19T20:01:03.927Z,98416.31
2023-03-19T20:03:32.766Z,98411.03
2023-03-19T20:06:00.786Z,98415.19
2023-03-19T20:08:27.662Z,98420.47
2023-03-19T20:10:54.921Z,98423.78
2023-03-19T20:13:25.151Z,98430.09
2023-03-19T20:15:53.255Z,98428.34
2023-03-19T20:18:20.496Z,98425.47
2023-03-19T20:20:47.180Z,98435.56
2023-03-19T20:23:15.271Z,98439.44
2023-03-19T20:25:43.422Z,98440.94
2023-03-19T20:28:19.442Z,98441.94
2023-03-19T20:30:46.158Z,98444.06
2023-03-19T20:33:13.262Z,98444.50
2023-03-19T20:35:41.663Z,98447.97
2023-03-19T20:38:08.872Z,98452.44
2023-03-19T20:40:40.372Z,98451.91
2023-03-19T20:43:07.853Z,98448.13
2023-03-19T20:45:36.251Z,98449.78
2023-03-19T20:48:04.087Z,98450.09
2023-03-19T20:50:32.931Z,98454.00
2023-03-19T20:53:03.592Z,98451.66
2023-03-19T20:55:33.987Z,98454.31
2023-03-19T20:58:02.640Z,98451.97
2023-03-19T21:00:33.419Z,98462.03
2023-03-19T21:03:01.649Z,98456.56
2023-03-19T21:05:34.248Z,98467.13
2023-03-19T21:08:01.431Z,98473.41
2023-03-19T21:10:33.493Z,98472.72
2023-03-19T21:13:01.817Z,98473.59
2023-03-19T21:15:29.135Z,98479.16
2023-03-19T21:17:57.442Z,98473.03
2023-03-19T21:20:27.408Z,98471.34
2023-03-19T21:22:57.341Z,98472.72
2023-03-19T21:25:28.043Z,98482.59
2023-03-19T21:27:57.990Z,98481.25
2023-03-19T21:30:24.686Z,98475.81
2023-03-19T21:32:53.163Z,98482.91
2023-03-19T21:35:25.025Z,98484.44
2023-03-19T21:37:52.847Z,98480.78
2023-03-19T21:40:26.445Z,98484.13
2023-03-19T21:42:55.967Z,98487.47
2023-03-19T21:45:27.754Z,98492.78
2023-03-19T21:48:21.250Z,98493.38
2023-03-19T21:50:50.174Z,98494.22
2023-03-19T21:53:21.330Z,98491.97
2023-03-19T21:55:49.101Z,98495.28
2023-03-19T21:58:17.812Z,98498.91
2023-03-19T22:00:45.369Z,98489.75
2023-03-19T22:03:19.943Z,98491.06
2023-03-19T22:05:49.760Z,98494.13
2023-03-19T22:08:20.475Z,98492.75
2023-03-19T22:10:50.065Z,98504.59
2023-03-19T22:13:19.561Z,98498.63
2023-03-19T22:15:46.226Z,98501.69
2023-03-19T22:18:15.786Z,98493.78
2023-03-19T22:20:44.002Z,98495.16
2023-03-19T22:23:12.300Z,98498.75
2023-03-19T22:25:42.294Z,98498.75
2023-03-19T22:28:20.952Z,98496.81
2023-03-19T22:30:47.957Z,98505.28
2023-03-19T22:33:18.688Z,98508.75
2023-03-19T22:35:45.957Z,98506.94
2023-03-19T22:38:12.914Z,98510.09
2023-03-19T22:40:39.829Z,98517.06
2023-03-19T22:43:15.726Z,98518.72
2023-03-19T22:45:42.392Z,98523.06
2023-03-19T22:48:13.662Z,98525.69
2023-03-19T22:50:40.484Z,98532.34
2023-03-19T22:53:21.365Z,98533.22
2023-03-19T22:55:48.071Z,98535.88
2023-03-19T22:58:14.774Z,98545.16
2023-03-19T23:00:41.388Z,98546.56
2023-03-19T23:03:11.664Z,98546.28
2023-03-19T23:05:39.104Z,98542.94
2023-03-19T23:08:06.573Z,98539.63
2023-03-19T23:10:33.666Z,98555.75
2023-03-19T23:13:00.355Z,98542.41
2023-03-19T23:15:28.704Z,98542.69
2023-03-19T23:17:59.419Z,98543.84
2023-03-19T23:20:27.729Z,98555.22
2023-03-19T23:22:54.781Z,98553.00
2023-03-19T23:25:26.237Z,98558.56
2023-03-19T23:27:57.243Z,98556.50
2023-03-19T23:30:28.156Z,98551.06
2023-03-19T23:32:56.239Z,98554.47
2023-03-19T23:35:25.996Z,98554.16
2023-03-19T23:37:55.004Z,98561.41
2023-03-19T23:40:24.553Z,98548.31
2023-03-19T23:42:55.075Z,98545.84
2023-03-19T23:45:21.597Z,98550.44
2023-03-19T23:47:48.239Z,98543.75
2023-03-19T23:50:15.071Z,98551.84
2023-03-19T23:52:42.088Z,98539.88
2023-03-19T23:55:09.510Z,98536.28
2023-03-19T23:57:38.033Z,98541.16
